Time;durP1;ratioP1;P1;durP2;ratioP2;P2;SDS_P1;SDS_P2;PMS_P1;PMS_P2;Temp;Humidity;BMP_temperature;BMP_pressure;BME280_temperature;BME280_humidity;BME280_pressure;Samples;Min_cycle;Max_cycle;Signal;HPM_P1;HPM_P2
2023/12/12 00:02:17;;;;;;;5.47;0.73;;;;;;;;;;5089041;28;20483;-69
2023/12/12 00:04:44;;;;;;;1.98;0.60;;;;;;;;;;5086345;28;20532;-70
2023/12/12 00:07:12;;;;;;;9.32;0.40;;;;;;;;;;5104725;28;20059;-69
2023/12/12 00:09:39;;;;;;;8.93;0.80;;;;;;;;;;5105603;28;20054;-70
2023/12/12 00:12:06;;;;;;;8.07;0.77;;;;;;;;;;5081207;28;20048;-69
2023/12/12 00:14:35;;;;;;;6.57;0.55;;;;;;;;;;5103078;28;20051;-69
2023/12/12 00:17:03;;;;;;;3.42;0.40;;;;;;;;;;5102986;28;20043;-69
2023/12/12 00:19:30;;;;;;;5.63;0.50;;;;;;;;;;5085484;28;20055;-70
2023/12/12 00:21:58;;;;;;;4.97;0.50;;;;;;;;;;5104555;28;20052;-69
2023/12/12 00:24:25;;;;;;;8.88;1.05;;;;;;;;;;5100951;28;20060;-69
2023/12/12 00:26:53;;;;;;;9.10;0.70;;;;;;;;;;5101475;28;20078;-70
2023/12/12 00:29:20;;;;;;;7.05;1.40;;;;;;;;;;5101399;28;20047;-69
2023/12/12 00:31:49;;;;;;;1.63;0.40;;;;;;;;;;5103148;28;20407;-69
2023/12/12 00:34:16;;;;;;;3.45;0.47;;;;;;;;;;5105556;28;20069;-70
2023/12/12 00:36:43;;;;;;;2.88;0.45;;;;;;;;;;5088963;28;20093;-69
2023/12/12 00:39:11;;;;;;;5.00;0.70;;;;;;;;;;5105460;28;20040;-69
2023/12/12 00:41:38;;;;;;;2.45;0.30;;;;;;;;;;5101313;28;20073;-70
2023/12/12 00:44:05;;;;;;;4.22;0.57;;;;;;;;;;5081619;28;21206;-69
2023/12/12 00:46:34;;;;;;;3.67;0.40;;;;;;;;;;5106609;28;20129;-69
2023/12/12 00:49:02;;;;;;;4.13;0.70;;;;;;;;;;5104999;28;20694;-70
2023/12/12 00:51:29;;;;;;;7.22;0.50;;;;;;;;;;5106487;28;20062;-69
2023/12/12 00:53:57;;;;;;;5.03;0.50;;;;;;;;;;5101329;28;20103;-70
2023/12/12 00:56:24;;;;;;;4.35;0.55;;;;;;;;;;5101809;28;20076;-69
2023/12/12 00:58:51;;;;;;;9.68;0.68;;;;;;;;;;5107151;28;20054;-69
2023/12/12 01:01:18;;;;;;;5.60;0.60;;;;;;;;;;5087225;28;20507;-69
2023/12/12 01:03:46;;;;;;;6.20;0.32;;;;;;;;;;5101784;28;20059;-69
2023/12/12 01:06:24;;;;;;;11.18;0.50;;;;;;;;;;5105797;28;20070;-70
2023/12/12 01:08:51;;;;;;;6.95;0.60;;;;;;;;;;5088251;28;20100;-69
2023/12/12 01:11:20;;;;;;;3.10;0.40;;;;;;;;;;5104197;28;20047;-69
2023/12/12 01:13:49;;;;;;;11.02;0.60;;;;;;;;;;5105056;28;20062;-69
2023/12/12 01:16:16;;;;;;;5.97;0.60;;;;;;;;;;5102582;28;20060;-69
2023/12/12 01:18:43;;;;;;;3.67;0.57;;;;;;;;;;5086268;28;20048;-69
2023/12/12 01:21:11;;;;;;;4.13;0.90;;;;;;;;;;5101252;28;20043;-70
2023/12/12 01:23:52;;;;;;;7.28;0.63;;;;;;;;;;5100811;28;20064;-69
2023/12/12 01:26:20;;;;;;;8.65;0.60;;;;;;;;;;5105331;28;20048;-69
2023/12/12 01:28:47;;;;;;;4.43;0.43;;;;;;;;;;5106424;28;20054;-69
2023/12/12 01:31:15;;;;;;;1.45;0.50;;;;;;;;;;5087659;28;20126;-69
2023/12/12 01:33:43;;;;;;;4.28;0.43;;;;;;;;;;5107676;28;20048;-69
2023/12/12 01:36:10;;;;;;;1.23;0.70;;;;;;;;;;5103798;28;20066;-69
2023/12/12 01:38:38;;;;;;;3.53;0.47;;;;;;;;;;5107122;28;20059;-69
2023/12/12 01:41:07;;;;;;;3.25;0.30;;;;;;;;;;5106121;28;20044;-69
2023/12/12 01:43:34;;;;;;;2.80;0.40;;;;;;;;;;5106495;28;20051;-69
2023/12/12 01:46:02;;;;;;;2.40;0.60;;;;;;;;;;5106130;28;20550;-69
2023/12/12 01:48:30;;;;;;;2.83;0.50;;;;;;;;;;5092803;28;20083;-69
2023/12/12 01:50:57;;;;;;;8.43;0.70;;;;;;;;;;5105875;28;20074;-69
2023/12/12 01:53:27;;;;;;;2.20;0.55;;;;;;;;;;5108371;28;20047;-69
2023/12/12 01:55:55;;;;;;;3.03;0.40;;;;;;;;;;5108766;28;20062;-69
2023/12/12 01:58:24;;;;;;;3.13;0.65;;;;;;;;;;5105926;28;20054;-69
2023/12/12 02:00:51;;;;;;;6.10;1.60;;;;;;;;;;5102696;28;20073;-69
2023/12/12 02:03:18;;;;;;;3.63;0.55;;;;;;;;;;5087904;28;20048;-69
2023/12/12 02:05:47;;;;;;;2.45;0.45;;;;;;;;;;5091310;28;20062;-69
2023/12/12 02:08:15;;;;;;;4.85;0.77;;;;;;;;;;5107248;28;20052;-69
2023/12/12 02:10:43;;;;;;;3.25;0.60;;;;;;;;;;5104668;28;20070;-69
2023/12/12 02:13:10;;;;;;;4.60;0.40;;;;;;;;;;5090842;28;20048;-69
2023/12/12 02:15:38;;;;;;;5.70;1.02;;;;;;;;;;5091426;28;20055;-69
2023/12/12 02:18:06;;;;;;;2.38;0.40;;;;;;;;;;5108541;28;20052;-69
2023/12/12 02:20:33;;;;;;;4.80;0.68;;;;;;;;;;5105740;28;20051;-69
2023/12/12 02:23:02;;;;;;;8.57;0.70;;;;;;;;;;5106579;28;20044;-69
2023/12/12 02:25:29;;;;;;;2.85;0.50;;;;;;;;;;5108440;28;20039;-69
2023/12/12 02:27:57;;;;;;;1.40;0.40;;;;;;;;;;5107139;28;20418;-69
2023/12/12 02:30:24;;;;;;;3.40;0.40;;;;;;;;;;5106947;28;20054;-69
2023/12/12 02:32:51;;;;;;;5.32;0.50;;;;;;;;;;5108028;28;20059;-69
2023/12/12 02:35:19;;;;;;;3.05;0.43;;;;;;;;;;5106659;28;20040;-69
2023/12/12 02:37:46;;;;;;;4.90;0.52;;;;;;;;;;5104054;28;20129;-69
2023/12/12 02:40:14;;;;;;;2.38;0.65;;;;;;;;;;5102966;28;20043;-69
2023/12/12 02:42:44;;;;;;;6.78;0.40;;;;;;;;;;5104461;28;20071;-69
2023/12/12 02:45:11;;;;;;;2.78;0.50;;;;;;;;;;5105917;28;20109;-69
2023/12/12 02:47:39;;;;;;;3.67;0.60;;;;;;;;;;5105932;28;20048;-69
2023/12/12 02:50:07;;;;;;;6.22;1.00;;;;;;;;;;5088004;28;20051;-69
2023/12/12 02:52:34;;;;;;;2.50;0.52;;;;;;;;;;5105462;28;20050;-69
2023/12/12 02:55:01;;;;;;;3.10;0.52;;;;;;;;;;5088102;28;20093;-69
2023/12/12 02:57:30;;;;;;;4.35;0.70;;;;;;;;;;5101787;28;20395;-69
2023/12/12 02:59:57;;;;;;;6.07;0.82;;;;;;;;;;5089997;28;20060;-69
2023/12/12 03:02:24;;;;;;;4.78;0.60;;;;;;;;;;5104715;28;20043;-70
2023/12/12 03:04:51;;;;;;;8.52;0.60;;;;;;;;;;5088031;28;20141;-69
2023/12/12 03:07:19;;;;;;;1.88;0.43;;;;;;;;;;5103646;28;20406;-69
2023/12/12 03:09:46;;;;;;;1.48;0.50;;;;;;;;;;5106166;28;20051;-69
2023/12/12 03:12:13;;;;;;;2.58;0.57;;;;;;;;;;5108127;28;20052;-69
2023/12/12 03:14:42;;;;;;;2.05;0.50;;;;;;;;;;5089638;28;20079;-69
2023/12/12 03:17:09;;;;;;;2.20;0.50;;;;;;;;;;5107507;28;20840;-70
2023/12/12 03:19:36;;;;;;;7.43;0.57;;;;;;;;;;5100114;28;20502;-69
2023/12/12 03:22:04;;;;;;;1.42;0.40;;;;;;;;;;5105067;28;20059;-69
2023/12/12 03:24:31;;;;;;;6.68;0.75;;;;;;;;;;5083232;28;20051;-69
2023/12/12 03:26:58;;;;;;;6.75;0.60;;;;;;;;;;5087299;28;20054;-69
2023/12/12 03:29:25;;;;;;;3.80;0.45;;;;;;;;;;5089678;28;20490;-69
2023/12/12 03:31:53;;;;;;;3.92;0.73;;;;;;;;;;5105947;28;20124;-69
2023/12/12 03:34:21;;;;;;;5.28;0.82;;;;;;;;;;5098093;28;20101;-69
2023/12/12 03:36:48;;;;;;;6.07;0.70;;;;;;;;;;5100356;28;20048;-69
2023/12/12 03:39:15;;;;;;;7.28;0.80;;;;;;;;;;5105811;28;20052;-69
2023/12/12 03:41:43;;;;;;;3.08;0.80;;;;;;;;;;5090490;28;20438;-69
2023/12/12 03:44:10;;;;;;;4.72;0.75;;;;;;;;;;5100670;28;20416;-69
2023/12/12 03:46:37;;;;;;;3.70;0.95;;;;;;;;;;5104760;28;20055;-70
2023/12/12 03:49:06;;;;;;;1.27;0.70;;;;;;;;;;5107212;28;20351;-69
2023/12/12 03:51:33;;;;;;;2.30;0.82;;;;;;;;;;5086979;28;20475;-70
2023/12/12 03:54:01;;;;;;;5.22;0.82;;;;;;;;;;5093993;28;20055;-69
2023/12/12 03:56:28;;;;;;;4.22;0.98;;;;;;;;;;5097936;28;20044;-69
2023/12/12 03:58:55;;;;;;;3.10;0.80;;;;;;;;;;5106767;28;20062;-69
2023/12/12 04:01:23;;;;;;;3.95;1.00;;;;;;;;;;5100783;28;20044;-69
2023/12/12 04:03:51;;;;;;;5.82;1.30;;;;;;;;;;5088606;28;20044;-69
2023/12/12 04:06:20;;;;;;;10.73;1.65;;;;;;;;;;5105541;28;20040;-70
2023/12/12 04:08:47;;;;;;;5.78;0.93;;;;;;;;;;5101960;28;20051;-69
2023/12/12 04:11:14;;;;;;;6.35;1.33;;;;;;;;;;5103273;28;20051;-69
2023/12/12 04:13:42;;;;;;;4.32;1.13;;;;;;;;;;5099866;28;20127;-70
2023/12/12 04:16:09;;;;;;;4.22;1.33;;;;;;;;;;5104113;28;20367;-69
2023/12/12 04:18:36;;;;;;;4.85;1.08;;;;;;;;;;5102794;28;20067;-69
2023/12/12 04:21:03;;;;;;;4.57;0.90;;;;;;;;;;5100664;28;20461;-69
2023/12/12 04:23:35;;;;;;;6.68;0.88;;;;;;;;;;5080819;28;20047;-69
2023/12/12 04:26:02;;;;;;;6.85;1.15;;;;;;;;;;5107797;28;20075;-69
2023/12/12 04:28:29;;;;;;;3.80;1.17;;;;;;;;;;5104452;28;20044;-70
2023/12/12 04:30:56;;;;;;;8.40;1.30;;;;;;;;;;5103084;28;20047;-69
2023/12/12 04:33:24;;;;;;;6.30;1.08;;;;;;;;;;5087729;28;20122;-69
2023/12/12 04:35:51;;;;;;;4.45;1.00;;;;;;;;;;5086222;28;20055;-69
2023/12/12 04:38:18;;;;;;;5.95;1.60;;;;;;;;;;5104890;28;20059;-69
2023/12/12 04:40:46;;;;;;;6.07;1.20;;;;;;;;;;5085449;28;20044;-69
2023/12/12 04:43:14;;;;;;;6.93;1.50;;;;;;;;;;5088564;28;20051;-69
2023/12/12 04:45:41;;;;;;;4.75;1.65;;;;;;;;;;5082627;28;20055;-69
2023/12/12 04:48:08;;;;;;;3.97;1.20;;;;;;;;;;5105452;28;20048;-69
2023/12/12 04:50:35;;;;;;;11.48;1.88;;;;;;;;;;5104208;28;20039;-69
2023/12/12 04:53:03;;;;;;;12.15;1.40;;;;;;;;;;5089257;28;20083;-69
2023/12/12 04:55:30;;;;;;;5.30;1.70;;;;;;;;;;5085351;28;20052;-69
2023/12/12 04:57:59;;;;;;;5.00;1.80;;;;;;;;;;5106039;28;20490;-69
2023/12/12 05:00:27;;;;;;;5.18;1.75;;;;;;;;;;5097967;28;20047;-69
2023/12/12 05:02:54;;;;;;;5.32;1.88;;;;;;;;;;5093793;28;20494;-70
2023/12/12 05:05:21;;;;;;;7.28;2.22;;;;;;;;;;5099569;28;20055;-69
2023/12/12 05:07:48;;;;;;;8.95;1.95;;;;;;;;;;5088202;28;20051;-70
2023/12/12 05:10:16;;;;;;;9.48;1.80;;;;;;;;;;5088763;28;20055;-70
2023/12/12 05:12:43;;;;;;;13.43;2.53;;;;;;;;;;5101914;28;20509;-70
2023/12/12 05:15:12;;;;;;;12.07;2.72;;;;;;;;;;5102433;28;20052;-69
2023/12/12 05:17:39;;;;;;;5.43;1.92;;;;;;;;;;5087071;28;20044;-69
2023/12/12 05:20:09;;;;;;;5.40;1.92;;;;;;;;;;5105568;28;20493;-69
2023/12/12 05:22:36;;;;;;;11.88;2.40;;;;;;;;;;5087574;28;20475;-69
2023/12/12 05:25:05;;;;;;;13.13;2.40;;;;;;;;;;5106799;28;20059;-70
2023/12/12 05:27:32;;;;;;;5.68;2.20;;;;;;;;;;5100857;28;20055;-70
2023/12/12 05:29:59;;;;;;;11.35;2.50;;;;;;;;;;5101460;28;20117;-69
2023/12/12 05:32:28;;;;;;;15.73;3.00;;;;;;;;;;5090790;28;20490;-70
2023/12/12 05:34:55;;;;;;;9.30;2.78;;;;;;;;;;5107583;28;20051;-69
2023/12/12 05:37:23;;;;;;;8.13;2.85;;;;;;;;;;5103385;28;20683;-70
2023/12/12 05:39:50;;;;;;;11.10;2.88;;;;;;;;;;5086370;28;20055;-70
2023/12/12 05:42:17;;;;;;;8.00;2.72;;;;;;;;;;5087709;28;20134;-69
2023/12/12 05:44:44;;;;;;;11.77;3.47;;;;;;;;;;5110856;28;20062;-69
2023/12/12 05:47:12;;;;;;;7.28;2.95;;;;;;;;;;5108700;28;20118;-70
2023/12/12 05:49:41;;;;;;;9.27;3.40;;;;;;;;;;5107301;28;20406;-69
2023/12/12 05:52:08;;;;;;;10.10;3.65;;;;;;;;;;5105625;28;20047;-69
2023/12/12 05:54:36;;;;;;;11.35;3.83;;;;;;;;;;5089231;28;20050;-69
2023/12/12 05:57:03;;;;;;;14.57;4.20;;;;;;;;;;5088835;28;20047;-71
2023/12/12 05:59:31;;;;;;;14.77;4.47;;;;;;;;;;5103456;28;20051;-71
2023/12/12 06:02:00;;;;;;;15.05;4.20;;;;;;;;;;5104223;28;20048;-71
2023/12/12 06:04:27;;;;;;;13.40;4.10;;;;;;;;;;5104388;28;20047;-71
2023/12/12 06:06:56;;;;;;;14.93;5.10;;;;;;;;;;5107491;28;20047;-71
2023/12/12 06:09:23;;;;;;;15.43;4.45;;;;;;;;;;5100103;28;20044;-71
2023/12/12 06:11:50;;;;;;;11.52;4.22;;;;;;;;;;5108526;28;20070;-71
2023/12/12 06:14:17;;;;;;;16.73;5.10;;;;;;;;;;5106089;28;20456;-71
2023/12/12 06:16:45;;;;;;;9.93;3.92;;;;;;;;;;5107859;28;20052;-71
2023/12/12 06:19:12;;;;;;;10.00;4.47;;;;;;;;;;5087853;28;20074;-71
2023/12/12 06:21:39;;;;;;;12.90;4.80;;;;;;;;;;5098624;28;20414;-71
2023/12/12 06:24:08;;;;;;;13.45;4.70;;;;;;;;;;5078102;28;20043;-71
2023/12/12 06:26:37;;;;;;;12.70;4.55;;;;;;;;;;5089048;28;20140;-72
2023/12/12 06:29:07;;;;;;;17.55;5.03;;;;;;;;;;5107410;28;20052;-71
2023/12/12 06:31:34;;;;;;;12.15;4.57;;;;;;;;;;5092278;28;20051;-71
2023/12/12 06:34:01;;;;;;;12.32;5.13;;;;;;;;;;5103100;28;20044;-71
2023/12/12 06:36:29;;;;;;;10.43;4.38;;;;;;;;;;5106735;28;20070;-71
2023/12/12 06:38:56;;;;;;;14.38;4.70;;;;;;;;;;5103709;28;20044;-71
2023/12/12 06:41:25;;;;;;;14.20;4.95;;;;;;;;;;5102020;28;20039;-71
2023/12/12 06:43:52;;;;;;;11.70;4.40;;;;;;;;;;5105122;28;20039;-71
2023/12/12 06:46:19;;;;;;;16.95;4.90;;;;;;;;;;5108892;28;20051;-71
2023/12/12 06:48:46;;;;;;;18.63;4.60;;;;;;;;;;5103084;28;20044;-71
2023/12/12 06:51:14;;;;;;;12.65;4.95;;;;;;;;;;5106888;28;20094;-71
2023/12/12 06:53:41;;;;;;;14.40;4.82;;;;;;;;;;5098971;28;20051;-71
2023/12/12 06:56:10;;;;;;;14.07;4.82;;;;;;;;;;5107802;28;20550;-71
2023/12/12 06:58:39;;;;;;;16.38;4.80;;;;;;;;;;5108091;28;20043;-71
2023/12/12 07:01:06;;;;;;;13.43;5.00;;;;;;;;;;5104018;28;20047;-71
2023/12/12 07:03:34;;;;;;;14.98;5.15;;;;;;;;;;5100195;28;20055;-71
2023/12/12 07:06:02;;;;;;;14.68;4.93;;;;;;;;;;5105122;28;20044;-71
2023/12/12 07:08:29;;;;;;;11.18;5.03;;;;;;;;;;5107671;28;20055;-71
2023/12/12 07:10:57;;;;;;;15.60;5.38;;;;;;;;;;5090587;28;20058;-71
2023/12/12 07:13:24;;;;;;;18.65;7.03;;;;;;;;;;5105889;28;20040;-71
2023/12/12 07:15:53;;;;;;;18.40;6.05;;;;;;;;;;5107879;28;20062;-71
2023/12/12 07:18:20;;;;;;;16.60;5.97;;;;;;;;;;5088357;28;20138;-71
2023/12/12 07:20:47;;;;;;;19.65;7.75;;;;;;;;;;5102984;28;20067;-71
2023/12/12 07:23:15;;;;;;;16.90;7.07;;;;;;;;;;5103047;28;20052;-71
2023/12/12 07:25:42;;;;;;;15.85;6.60;;;;;;;;;;5107572;28;20040;-71
2023/12/12 07:28:10;;;;;;;20.85;6.75;;;;;;;;;;5103671;28;20044;-71
2023/12/12 07:30:37;;;;;;;12.55;5.43;;;;;;;;;;5082780;28;20052;-71
2023/12/12 07:33:05;;;;;;;20.45;8.30;;;;;;;;;;5103981;28;20044;-71
2023/12/12 07:35:33;;;;;;;20.08;6.93;;;;;;;;;;5098432;28;20150;-71
2023/12/12 07:38:01;;;;;;;14.10;5.63;;;;;;;;;;5086229;28;20059;-71
2023/12/12 07:40:30;;;;;;;22.77;5.80;;;;;;;;;;5089611;28;20557;-71
2023/12/12 07:42:57;;;;;;;18.55;5.70;;;;;;;;;;5097326;28;20075;-71
2023/12/12 07:45:24;;;;;;;12.55;5.85;;;;;;;;;;5098162;28;20048;-71
2023/12/12 07:47:52;;;;;;;22.05;6.35;;;;;;;;;;5104778;28;20181;-71
2023/12/12 07:50:20;;;;;;;18.52;5.93;;;;;;;;;;5100882;28;20056;-71
2023/12/12 07:52:48;;;;;;;22.38;7.22;;;;;;;;;;5084812;28;20055;-71
2023/12/12 07:55:15;;;;;;;30.25;7.40;;;;;;;;;;5104477;28;20040;-71
2023/12/12 07:57:43;;;;;;;36.42;8.40;;;;;;;;;;5100271;28;20040;-71
2023/12/12 08:00:11;;;;;;;28.85;8.35;;;;;;;;;;5100100;28;20070;-71
2023/12/12 08:02:38;;;;;;;27.52;9.02;;;;;;;;;;5104387;28;20055;-71
2023/12/12 08:05:15;;;;;;;38.88;9.90;;;;;;;;;;5066779;27;20588;-71
2023/12/12 08:07:42;;;;;;;38.60;10.18;;;;;;;;;;5066371;28;20087;-72
2023/12/12 08:10:10;;;;;;;46.47;10.43;;;;;;;;;;5067117;28;20056;-71
2023/12/12 08:12:37;;;;;;;48.58;11.05;;;;;;;;;;5066011;28;20060;-72
2023/12/12 08:15:05;;;;;;;98.78;13.00;;;;;;;;;;5067485;28;20056;-72
2023/12/12 08:17:32;;;;;;;99.50;13.35;;;;;;;;;;5042212;28;20103;-72
2023/12/12 08:20:00;;;;;;;102.72;12.80;;;;;;;;;;5064850;28;20072;-71
2023/12/12 08:22:28;;;;;;;110.75;12.68;;;;;;;;;;5048800;28;20052;-71
2023/12/12 08:24:56;;;;;;;95.93;13.35;;;;;;;;;;5066312;28;20056;-72
2023/12/12 08:27:23;;;;;;;90.85;12.48;;;;;;;;;;5044411;28;20087;-72
2023/12/12 08:29:50;;;;;;;130.30;12.90;;;;;;;;;;5065259;28;20037;-72
2023/12/12 08:32:17;;;;;;;113.15;13.85;;;;;;;;;;5065294;28;20052;-72
2023/12/12 08:34:45;;;;;;;134.80;14.15;;;;;;;;;;5063389;28;20048;-71
2023/12/12 08:37:12;;;;;;;87.18;12.02;;;;;;;;;;5062551;28;20040;-71
2023/12/12 08:39:41;;;;;;;116.65;12.10;;;;;;;;;;5060577;28;20049;-71
2023/12/12 08:42:09;;;;;;;148.68;13.75;;;;;;;;;;5061546;28;20075;-72
2023/12/12 08:44:36;;;;;;;117.72;12.73;;;;;;;;;;5061862;28;20040;-71
2023/12/12 08:47:03;;;;;;;160.02;14.43;;;;;;;;;;5054791;28;20061;-72
2023/12/12 08:49:33;;;;;;;115.85;12.15;;;;;;;;;;5046308;28;20053;-71
2023/12/12 08:52:02;;;;;;;106.63;13.20;;;;;;;;;;5067411;28;20069;-72
2023/12/12 08:54:29;;;;;;;95.55;12.27;;;;;;;;;;5064753;28;20517;-72
2023/12/12 08:56:58;;;;;;;100.85;13.18;;;;;;;;;;5043870;28;20052;-72
2023/12/12 08:59:25;;;;;;;94.57;12.48;;;;;;;;;;5060110;28;20580;-72
2023/12/12 09:01:52;;;;;;;116.43;13.35;;;;;;;;;;5045378;28;20050;-72
2023/12/12 09:04:20;;;;;;;95.85;12.52;;;;;;;;;;5061153;28;20049;-72
2023/12/12 09:06:47;;;;;;;128.32;13.40;;;;;;;;;;5050544;28;20053;-72
2023/12/12 09:09:15;;;;;;;87.43;13.10;;;;;;;;;;5068789;28;20059;-72
2023/12/12 09:11:42;;;;;;;104.75;12.75;;;;;;;;;;5071884;28;20055;-72
2023/12/12 09:14:11;;;;;;;85.88;14.00;;;;;;;;;;5048862;28;20077;-73
2023/12/12 09:16:38;;;;;;;74.10;13.80;;;;;;;;;;5029889;28;20056;-72
2023/12/12 09:19:06;;;;;;;61.03;13.75;;;;;;;;;;5044097;28;20146;-72
2023/12/12 09:21:33;;;;;;;101.70;12.85;;;;;;;;;;5029866;28;20045;-72
2023/12/12 09:24:00;;;;;;;70.38;11.70;;;;;;;;;;5041715;28;20045;-71
2023/12/12 09:26:28;;;;;;;52.53;11.45;;;;;;;;;;5041885;28;20052;-72
2023/12/12 09:28:55;;;;;;;51.97;10.75;;;;;;;;;;5040309;28;20054;-72
2023/12/12 09:31:27;;;;;;;51.33;11.00;;;;;;;;;;5028317;28;20057;-71
2023/12/12 09:33:54;;;;;;;56.00;11.35;;;;;;;;;;5027729;28;20056;-71
2023/12/12 09:36:21;;;;;;;79.70;13.73;;;;;;;;;;5033080;28;20041;-71
2023/12/12 09:38:49;;;;;;;74.57;12.10;;;;;;;;;;5051556;28;20044;-71
2023/12/12 09:41:17;;;;;;;91.43;12.05;;;;;;;;;;5053442;28;20048;-71
2023/12/12 09:43:46;;;;;;;75.88;12.13;;;;;;;;;;5033487;28;20431;-71
2023/12/12 09:46:13;;;;;;;63.25;10.63;;;;;;;;;;5055150;28;20063;-71
2023/12/12 09:48:42;;;;;;;60.35;10.57;;;;;;;;;;5033145;28;20084;-71
2023/12/12 09:51:10;;;;;;;86.18;11.35;;;;;;;;;;5055705;28;20049;-71
2023/12/12 09:53:39;;;;;;;147.43;11.32;;;;;;;;;;5055587;28;20059;-71
2023/12/12 09:56:08;;;;;;;163.18;11.77;;;;;;;;;;5048696;28;20049;-71
2023/12/12 09:58:35;;;;;;;137.88;12.13;;;;;;;;;;5052473;28;20048;-71
2023/12/12 10:01:04;;;;;;;147.85;12.00;;;;;;;;;;5054713;28;20060;-71
2023/12/12 10:03:32;;;;;;;95.95;12.07;;;;;;;;;;5052903;28;20068;-71
2023/12/12 10:06:03;;;;;;;139.65;12.75;;;;;;;;;;5046937;28;20056;-71
2023/12/12 10:08:30;;;;;;;129.65;12.15;;;;;;;;;;5051366;28;20078;-71
2023/12/12 10:10:58;;;;;;;117.05;12.38;;;;;;;;;;5053929;28;20393;-71
2023/12/12 10:13:25;;;;;;;92.03;12.85;;;;;;;;;;5049150;28;20053;-71
2023/12/12 10:15:53;;;;;;;59.90;11.93;;;;;;;;;;5048000;28;20128;-71
2023/12/12 10:18:22;;;;;;;53.20;13.85;;;;;;;;;;5048660;28;20076;-72
2023/12/12 10:20:50;;;;;;;73.97;14.73;;;;;;;;;;5048457;28;20052;-71
2023/12/12 10:23:19;;;;;;;66.97;14.23;;;;;;;;;;5051426;28;20484;-72
2023/12/12 10:25:49;;;;;;;91.05;14.00;;;;;;;;;;5057817;28;20124;-72
2023/12/12 10:28:16;;;;;;;55.88;12.80;;;;;;;;;;5047351;28;20060;-71
2023/12/12 10:30:44;;;;;;;56.50;13.88;;;;;;;;;;5029822;28;20062;-71
2023/12/12 10:33:14;;;;;;;65.25;14.43;;;;;;;;;;5049824;28;20366;-71
2023/12/12 10:35:45;;;;;;;58.97;14.35;;;;;;;;;;5058803;28;20052;-71
2023/12/12 10:38:13;;;;;;;70.63;16.70;;;;;;;;;;5053926;28;20045;-71
2023/12/12 10:40:42;;;;;;;63.83;14.75;;;;;;;;;;5036424;28;20102;-71
2023/12/12 10:43:11;;;;;;;57.13;13.27;;;;;;;;;;5053022;28;20041;-72
2023/12/12 10:45:40;;;;;;;49.58;13.70;;;;;;;;;;5054239;28;20045;-72
2023/12/12 10:48:08;;;;;;;52.55;14.00;;;;;;;;;;5051829;28;20053;-71
2023/12/12 10:50:36;;;;;;;55.13;14.75;;;;;;;;;;5045500;28;20061;-71
2023/12/12 10:53:04;;;;;;;42.03;14.82;;;;;;;;;;5048075;28;20044;-71
2023/12/12 10:55:32;;;;;;;44.20;14.75;;;;;;;;;;5055362;28;20060;-71
2023/12/12 10:58:01;;;;;;;45.05;14.75;;;;;;;;;;5042461;28;20044;-71
2023/12/12 11:00:29;;;;;;;43.35;15.13;;;;;;;;;;5051080;28;20045;-72
2023/12/12 11:02:56;;;;;;;35.90;14.90;;;;;;;;;;5050662;28;20049;-72
2023/12/12 11:05:24;;;;;;;41.28;14.35;;;;;;;;;;5051837;28;20049;-71
2023/12/12 11:07:53;;;;;;;38.55;14.60;;;;;;;;;;5041619;28;20052;-71
2023/12/12 11:10:22;;;;;;;40.33;15.80;;;;;;;;;;5055447;28;20041;-71
2023/12/12 11:12:51;;;;;;;45.22;15.32;;;;;;;;;;5056526;28;20037;-72
2023/12/12 11:15:22;;;;;;;42.95;15.40;;;;;;;;;;5044840;28;20488;-72
2023/12/12 11:17:50;;;;;;;44.00;15.75;;;;;;;;;;5048701;28;20049;-71
2023/12/12 11:20:18;;;;;;;37.63;15.45;;;;;;;;;;5048479;28;20041;-72
2023/12/12 11:22:46;;;;;;;41.15;15.82;;;;;;;;;;5050268;28;20041;-72
2023/12/12 11:25:19;;;;;;;40.53;15.50;;;;;;;;;;5053188;28;20049;-71
2023/12/12 11:27:48;;;;;;;31.02;13.57;;;;;;;;;;5050085;28;20056;-71
2023/12/12 11:30:16;;;;;;;31.55;13.75;;;;;;;;;;5025456;28;20139;-72
2023/12/12 11:32:44;;;;;;;33.67;13.50;;;;;;;;;;5046261;28;20096;-71
2023/12/12 11:35:26;;;;;;;36.38;14.75;;;;;;;;;;5050296;28;20045;-71
2023/12/12 11:37:54;;;;;;;32.55;13.13;;;;;;;;;;5052669;28;20680;-72
2023/12/12 11:40:23;;;;;;;32.80;13.05;;;;;;;;;;5051016;28;20485;-72
2023/12/12 11:42:53;;;;;;;34.03;13.50;;;;;;;;;;5057491;28;20048;-71
2023/12/12 11:45:32;;;;;;;35.33;13.80;;;;;;;;;;5046402;28;20179;-71
2023/12/12 11:48:02;;;;;;;33.60;12.93;;;;;;;;;;5046500;28;20052;-71
2023/12/12 11:50:33;;;;;;;34.22;13.23;;;;;;;;;;5032382;28;20135;-71
2023/12/12 11:53:02;;;;;;;36.50;12.73;;;;;;;;;;5052081;28;20045;-71
2023/12/12 11:55:32;;;;;;;37.75;16.75;;;;;;;;;;5048091;28;20107;-71
2023/12/12 11:58:02;;;;;;;36.40;17.08;;;;;;;;;;5046391;28;20484;-71
2023/12/12 12:00:34;;;;;;;28.23;13.02;;;;;;;;;;5056383;28;20052;-72
2023/12/12 12:03:02;;;;;;;35.42;14.25;;;;;;;;;;5030650;28;20515;-71
2023/12/12 12:05:30;;;;;;;33.05;14.20;;;;;;;;;;5025379;28;20045;-72
2023/12/12 12:07:57;;;;;;;30.20;12.85;;;;;;;;;;5008340;28;20057;-72
2023/12/12 12:10:25;;;;;;;39.15;14.90;;;;;;;;;;5027957;28;20148;-71
2023/12/12 12:12:53;;;;;;;35.42;13.68;;;;;;;;;;5023433;28;20050;-71
2023/12/12 12:15:20;;;;;;;37.53;14.52;;;;;;;;;;5028148;28;20060;-72
2023/12/12 12:17:47;;;;;;;32.47;13.77;;;;;;;;;;5029254;28;20087;-72
2023/12/12 12:20:16;;;;;;;34.95;14.52;;;;;;;;;;5030426;28;20137;-71
2023/12/12 12:22:43;;;;;;;30.50;13.27;;;;;;;;;;5014618;28;20052;-72
2023/12/12 12:25:11;;;;;;;26.40;12.60;;;;;;;;;;5030258;28;21177;-72
2023/12/12 12:27:49;;;;;;;35.53;13.32;;;;;;;;;;5036478;28;20349;-71
2023/12/12 12:30:17;;;;;;;28.40;13.35;;;;;;;;;;5030490;28;20053;-71
2023/12/12 12:32:57;;;;;;;26.77;13.15;;;;;;;;;;5029260;28;20045;-72
2023/12/12 12:35:26;;;;;;;32.90;15.10;;;;;;;;;;5035805;28;20041;-72
2023/12/12 12:37:54;;;;;;;28.10;12.75;;;;;;;;;;5032834;28;20099;-72
2023/12/12 12:40:32;;;;;;;27.95;13.25;;;;;;;;;;5023221;28;20099;-71
2023/12/12 12:43:00;;;;;;;29.08;12.38;;;;;;;;;;5026178;28;20037;-71
2023/12/12 12:45:29;;;;;;;28.42;12.63;;;;;;;;;;5034396;28;20073;-71
2023/12/12 12:47:56;;;;;;;31.20;13.60;;;;;;;;;;5031451;28;20088;-71
2023/12/12 12:50:23;;;;;;;28.20;13.25;;;;;;;;;;5033060;28;20077;-71
2023/12/12 12:52:52;;;;;;;28.60;13.88;;;;;;;;;;5036949;28;20102;-71
2023/12/12 12:55:19;;;;;;;27.75;13.18;;;;;;;;;;5032855;28;20395;-71
2023/12/12 12:57:46;;;;;;;28.88;12.88;;;;;;;;;;5012061;28;20518;-71
2023/12/12 13:00:17;;;;;;;30.45;13.23;;;;;;;;;;5027349;28;20052;-72
2023/12/12 13:02:44;;;;;;;27.35;13.13;;;;;;;;;;5041578;28;20131;-71
2023/12/12 13:05:11;;;;;;;31.98;13.20;;;;;;;;;;5053487;28;20458;-71
2023/12/12 13:07:39;;;;;;;31.00;12.98;;;;;;;;;;5053783;28;20045;-71
2023/12/12 13:10:09;;;;;;;33.65;13.75;;;;;;;;;;5051699;28;20057;-71
2023/12/12 13:12:38;;;;;;;28.88;13.23;;;;;;;;;;5052825;28;20492;-71
2023/12/12 13:15:06;;;;;;;29.70;13.55;;;;;;;;;;5038145;28;20048;-71
2023/12/12 13:17:34;;;;;;;27.38;12.43;;;;;;;;;;5053109;28;20046;-72
2023/12/12 13:20:07;;;;;;;22.35;11.00;;;;;;;;;;5051948;28;20492;-71
2023/12/12 13:22:34;;;;;;;29.48;12.38;;;;;;;;;;5044679;28;20091;-71
2023/12/12 13:25:01;;;;;;;24.70;12.35;;;;;;;;;;5033197;28;20050;-71
2023/12/12 13:27:30;;;;;;;25.30;12.00;;;;;;;;;;5025986;28;20045;-71
2023/12/12 13:29:57;;;;;;;26.48;12.27;;;;;;;;;;5030649;28;20056;-71
2023/12/12 13:32:24;;;;;;;27.95;13.48;;;;;;;;;;5053826;28;20055;-72
2023/12/12 13:34:52;;;;;;;24.10;12.50;;;;;;;;;;5053736;28;20052;-71
2023/12/12 13:37:20;;;;;;;26.98;12.05;;;;;;;;;;5034751;28;20128;-72
2023/12/12 13:39:47;;;;;;;24.17;12.02;;;;;;;;;;5045161;28;20053;-71
2023/12/12 13:42:14;;;;;;;28.65;13.18;;;;;;;;;;5029517;28;20046;-72
2023/12/12 13:44:43;;;;;;;31.77;13.35;;;;;;;;;;5050316;28;20047;-71
2023/12/12 13:47:10;;;;;;;28.00;13.23;;;;;;;;;;5037214;28;20064;-71
2023/12/12 13:49:37;;;;;;;31.70;13.60;;;;;;;;;;5039861;28;20079;-72
2023/12/12 13:52:05;;;;;;;27.27;12.98;;;;;;;;;;5042521;28;20148;-71
2023/12/12 13:54:32;;;;;;;29.23;13.20;;;;;;;;;;5046962;28;20049;-71
2023/12/12 13:56:59;;;;;;;34.03;14.02;;;;;;;;;;5049596;28;20041;-71
2023/12/12 13:59:27;;;;;;;29.08;12.93;;;;;;;;;;5047872;28;20127;-71
2023/12/12 14:01:55;;;;;;;31.52;13.27;;;;;;;;;;5049559;28;20053;-72
2023/12/12 14:04:23;;;;;;;35.22;14.63;;;;;;;;;;5043563;28;20049;-71
2023/12/12 14:06:50;;;;;;;36.83;14.63;;;;;;;;;;5053418;28;20497;-72
2023/12/12 14:09:17;;;;;;;36.50;15.48;;;;;;;;;;5046437;28;20063;-76
2023/12/12 14:11:45;;;;;;;38.83;16.02;;;;;;;;;;5036467;28;20048;-71
2023/12/12 14:14:12;;;;;;;33.30;16.08;;;;;;;;;;5053123;28;20479;-71
2023/12/12 14:16:39;;;;;;;35.03;15.25;;;;;;;;;;5034729;28;20060;-71
2023/12/12 14:19:08;;;;;;;30.60;14.27;;;;;;;;;;5045155;28;20051;-71
2023/12/12 14:21:36;;;;;;;33.72;13.13;;;;;;;;;;5030656;28;20049;-71
2023/12/12 14:24:04;;;;;;;31.52;13.98;;;;;;;;;;5032359;28;20081;-71
2023/12/12 14:26:31;;;;;;;34.10;13.43;;;;;;;;;;5051497;28;20051;-71
2023/12/12 14:28:59;;;;;;;33.75;13.50;;;;;;;;;;5051697;28;20083;-71
2023/12/12 14:31:26;;;;;;;29.33;13.05;;;;;;;;;;5050489;28;20492;-71
2023/12/12 14:33:53;;;;;;;37.45;14.77;;;;;;;;;;5053203;28;20040;-71